createdAt,value
2019-02-05T00:01:16.876Z,101603.16
2019-02-05T00:02:52.376Z,101592.92
2019-02-05T00:04:30.442Z,101593.87
2019-02-05T00:06:06.644Z,101589.72
2019-02-05T00:07:42.593Z,101585.00
2019-02-05T00:09:37.427Z,101587.72
2019-02-05T00:11:39.167Z,101589.13
2019-02-05T00:13:15.307Z,101586.25
2019-02-05T00:14:57.317Z,101589.02
2019-02-05T00:16:33.063Z,101584.80
2019-02-05T00:18:14.230Z,101586.19
2019-02-05T00:19:58.635Z,101585.61
2019-02-05T00:21:34.975Z,101585.69
2019-02-05T00:23:10.931Z,101588.81
2019-02-05T00:24:46.682Z,101590.48
2019-02-05T00:26:22.344Z,101586.61
2019-02-05T00:27:58.304Z,101589.72
2019-02-05T00:29:34.123Z,101590.23
2019-02-05T00:31:09.984Z,101589.33
2019-02-05T00:32:45.908Z,101596.09
2019-02-05T00:34:21.184Z,101591.37
2019-02-05T00:35:56.685Z,101591.38
2019-02-05T00:37:32.169Z,101592.38
2019-02-05T00:39:10.060Z,101577.26
2019-02-05T00:40:45.379Z,101575.45
2019-02-05T00:42:20.789Z,101569.73
2019-02-05T00:43:56.387Z,101570.94
2019-02-05T00:45:34.851Z,101563.09
2019-02-05T00:47:10.117Z,101561.50
2019-02-05T00:48:45.348Z,101562.42
2019-02-05T00:50:21.338Z,101559.73
2019-02-05T00:51:56.970Z,101559.32
2019-02-05T00:53:32.684Z,101559.00
2019-02-05T00:55:10.507Z,101568.82
2019-02-05T00:56:45.716Z,101561.25
2019-02-05T00:58:21.085Z,101566.89
2019-02-05T00:59:56.384Z,101564.61
2019-02-05T01:01:31.982Z,101556.28
2019-02-05T01:03:08.129Z,101554.34
2019-02-05T01:04:43.982Z,101555.52
2019-02-05T01:06:19.711Z,101569.65
2019-02-05T01:07:55.760Z,101568.36
2019-02-05T01:09:31.351Z,101569.27
2019-02-05T01:11:06.926Z,101573.00
2019-02-05T01:12:42.447Z,101575.48
2019-02-05T01:14:18.608Z,101570.06
2019-02-05T01:15:54.624Z,101563.02
2019-02-05T01:17:30.649Z,101565.39
2019-02-05T01:19:06.738Z,101568.95
2019-02-05T01:20:42.342Z,101568.20
2019-02-05T01:22:19.884Z,101573.98
2019-02-05T01:23:55.600Z,101567.83
2019-02-05T01:25:33.419Z,101574.09
2019-02-05T01:27:08.665Z,101574.82
2019-02-05T01:28:44.298Z,101571.69
2019-02-05T01:30:24.101Z,101573.46
2019-02-05T01:31:59.354Z,101572.72
2019-02-05T01:33:35.243Z,101568.45
2019-02-05T01:35:10.961Z,101572.66
2019-02-05T01:36:46.411Z,101573.20
2019-02-05T01:38:22.070Z,101572.64
2019-02-05T01:39:57.408Z,101569.42
2019-02-05T01:41:32.884Z,101563.73
2019-02-05T01:43:08.711Z,101564.63
2019-02-05T01:44:44.866Z,101553.70
2019-02-05T01:46:20.120Z,101547.53
2019-02-05T01:47:56.144Z,101541.38
2019-02-05T01:49:31.454Z,101547.12
2019-02-05T01:51:06.821Z,101537.11
2019-02-05T01:52:42.272Z,101541.53
2019-02-05T01:54:18.022Z,101545.64
2019-02-05T01:55:53.550Z,101539.63
2019-02-05T01:57:29.487Z,101528.02
2019-02-05T01:59:05.716Z,101523.03
2019-02-05T02:00:41.312Z,101528.64
2019-02-05T02:02:16.727Z,101530.60
2019-02-05T02:03:52.649Z,101526.23
2019-02-05T02:05:27.919Z,101529.02
2019-02-05T02:07:04.399Z,101515.47
2019-02-05T02:08:39.760Z,101512.30
2019-02-05T02:10:19.213Z,101502.42
2019-02-05T02:11:55.160Z,101491.83
2019-02-05T02:13:30.614Z,101500.88
2019-02-05T02:15:07.522Z,101499.95
2019-02-05T02:16:42.591Z,101515.45
2019-02-05T02:18:18.216Z,101510.98
2019-02-05T02:19:53.205Z,101513.07
2019-02-05T02:21:28.366Z,101511.06
2019-02-05T02:23:03.815Z,101504.38
2019-02-05T02:24:39.366Z,101497.96
2019-02-05T02:26:14.399Z,101507.91
2019-02-05T02:27:51.007Z,101504.08
2019-02-05T02:29:25.918Z,101508.11
2019-02-05T02:31:01.090Z,101508.53
2019-02-05T02:32:35.995Z,101505.64
2019-02-05T02:34:11.129Z,101501.80
2019-02-05T02:35:46.063Z,101499.75
2019-02-05T02:37:21.634Z,101502.97
2019-02-05T02:38:56.577Z,101506.11
2019-02-05T02:40:31.432Z,101504.83
2019-02-05T02:42:06.609Z,101503.72
2019-02-05T02:43:41.787Z,101498.11
2019-02-05T02:45:16.905Z,101492.48
2019-02-05T02:46:52.037Z,101491.68
2019-02-05T02:48:28.158Z,101491.14
2019-02-05T02:50:02.996Z,101488.91
2019-02-05T02:51:38.289Z,101486.44
2019-02-05T02:53:13.429Z,101486.61
2019-02-05T02:54:48.301Z,101488.06
2019-02-05T02:56:23.162Z,101486.59
2019-02-05T02:57:58.039Z,101484.94
2019-02-05T02:59:33.111Z,101489.38
2019-02-05T03:01:08.716Z,101479.88
2019-02-05T03:02:44.090Z,101479.91
2019-02-05T03:04:19.068Z,101481.50
2019-02-05T03:05:54.083Z,101476.08
2019-02-05T03:07:28.943Z,101471.75
2019-02-05T03:09:07.464Z,101462.44
2019-02-05T03:10:42.415Z,101460.98
2019-02-05T03:12:17.292Z,101463.03
2019-02-05T03:13:52.696Z,101456.70
2019-02-05T03:15:27.796Z,101460.22
2019-02-05T03:17:02.939Z,101465.97
2019-02-05T03:18:37.860Z,101467.59
2019-02-05T03:20:13.970Z,101464.94
2019-02-05T03:21:49.258Z,101469.66
2019-02-05T03:23:24.522Z,101466.42
2019-02-05T03:24:59.756Z,101475.45
2019-02-05T03:26:34.939Z,101467.31
2019-02-05T03:28:09.965Z,101470.49
2019-02-05T03:29:45.073Z,101470.42
2019-02-05T03:31:20.349Z,101470.70
2019-02-05T03:32:56.049Z,101470.77
2019-02-05T03:34:31.045Z,101470.64
2019-02-05T03:36:06.664Z,101475.39
2019-02-05T03:37:41.787Z,101475.38
2019-02-05T03:39:16.951Z,101466.98
2019-02-05T03:41:07.638Z,101477.73
2019-02-05T03:42:42.709Z,101478.14
2019-02-05T03:44:17.703Z,101474.03
2019-02-05T03:45:53.473Z,101477.19
2019-02-05T03:47:29.218Z,101475.94
2019-02-05T03:49:04.491Z,101468.59
2019-02-05T03:50:46.212Z,101457.77
2019-02-05T03:52:29.366Z,101470.50
2019-02-05T03:54:20.118Z,101469.98
2019-02-05T03:57:32.018Z,101468.54
2019-02-05T03:59:23.744Z,101476.11
2019-02-05T04:01:53.635Z,101475.23
2019-02-05T04:04:15.498Z,101475.88
2019-02-05T04:06:27.701Z,101471.88
2019-02-05T04:08:50.148Z,101477.76
2019-02-05T04:11:18.568Z,101484.03
2019-02-05T04:13:30.669Z,101490.63
2019-02-05T04:15:36.751Z,101487.09
2019-02-05T04:17:46.003Z,101484.72
2019-02-05T04:20:02.447Z,101487.18
2019-02-05T04:21:59.165Z,101487.59
2019-02-05T04:24:31.359Z,101496.03
2019-02-05T04:26:51.112Z,101491.50
2019-02-05T04:29:05.622Z,101493.94
2019-02-05T04:31:04.788Z,101492.04
2019-02-05T04:33:13.750Z,101488.66
2019-02-05T04:35:34.868Z,101499.09
2019-02-05T04:37:20.283Z,101504.95
2019-02-05T04:39:30.560Z,101515.02
2019-02-05T04:41:46.628Z,101521.82
2019-02-05T04:43:34.826Z,101522.98
2019-02-05T04:45:59.721Z,101518.28
2019-02-05T04:48:10.475Z,101522.10
2019-02-05T04:49:56.760Z,101514.62
2019-02-05T04:51:50.619Z,101518.81
2019-02-05T04:54:15.471Z,101514.64
2019-02-05T04:56:25.247Z,101520.38
2019-02-05T04:58:35.992Z,101512.84
2019-02-05T05:00:32.479Z,101506.84
2019-02-05T05:02:30.431Z,101514.08
2019-02-05T05:04:26.605Z,101515.75
2019-02-05T05:06:13.386Z,101519.17
2019-02-05T05:07:59.237Z,101519.02
2019-02-05T05:09:56.295Z,101529.25
2019-02-05T05:11:31.375Z,101528.67
2019-02-05T05:13:06.338Z,101531.18
2019-02-05T05:14:40.812Z,101540.71
2019-02-05T05:16:15.674Z,101535.94
2019-02-05T05:17:50.430Z,101541.38
2019-02-05T05:19:25.375Z,101541.50
2019-02-05T05:20:59.871Z,101539.61
2019-02-05T05:22:34.970Z,101550.19
2019-02-05T05:24:10.037Z,101557.84
2019-02-05T05:25:45.185Z,101563.71
2019-02-05T05:27:21.272Z,101555.91
2019-02-05T05:28:56.482Z,101561.89
2019-02-05T05:30:31.340Z,101564.96
2019-02-05T05:32:06.007Z,101561.96
2019-02-05T05:33:40.879Z,101563.20
2019-02-05T05:35:15.762Z,101567.41
2019-02-05T05:36:50.223Z,101559.48
2019-02-05T05:38:25.210Z,101552.69
2019-02-05T05:40:00.045Z,101550.42
2019-02-05T05:41:34.837Z,101557.95
2019-02-05T05:43:09.310Z,101556.89
2019-02-05T05:44:44.508Z,101554.38
2019-02-05T05:46:19.044Z,101559.23
2019-02-05T05:47:53.526Z,101560.65
2019-02-05T05:49:28.018Z,101560.22
2019-02-05T05:51:02.488Z,101562.20
2019-02-05T05:52:37.328Z,101567.52
2019-02-05T05:54:12.675Z,101573.87
2019-02-05T05:55:47.913Z,101572.13
2019-02-05T05:57:22.995Z,101573.92
2019-02-05T05:58:58.363Z,101578.37
2019-02-05T06:00:33.486Z,101583.76
2019-02-05T06:02:08.651Z,101576.48
2019-02-05T06:03:43.495Z,101574.81
2019-02-05T06:05:20.488Z,101569.23
2019-02-05T06:06:55.872Z,101570.20
2019-02-05T06:08:31.184Z,101574.42
2019-02-05T06:10:07.937Z,101578.03
2019-02-05T06:11:42.842Z,101580.42
2019-02-05T06:13:17.920Z,101580.24
2019-02-05T06:14:52.738Z,101568.01
2019-02-05T06:16:27.928Z,101564.02
2019-02-05T06:18:02.865Z,101566.75
2019-02-05T06:19:39.809Z,101558.45
2019-02-05T06:21:14.625Z,101558.42
2019-02-05T06:22:49.531Z,101545.31
2019-02-05T06:24:24.532Z,101533.70
2019-02-05T06:25:59.375Z,101524.30
2019-02-05T06:27:34.453Z,101531.85
2019-02-05T06:29:09.388Z,101542.16
2019-02-05T06:30:44.265Z,101546.03
2019-02-05T06:32:19.766Z,101543.86
2019-02-05T06:33:54.864Z,101551.78
2019-02-05T06:35:29.824Z,101552.91
2019-02-05T06:37:04.773Z,101551.14
2019-02-05T06:38:39.950Z,101546.16
2019-02-05T06:40:18.497Z,101544.12
2019-02-05T06:41:53.399Z,101551.38
2019-02-05T06:43:28.781Z,101543.85
2019-02-05T06:45:04.951Z,101545.36
2019-02-05T06:46:39.788Z,101548.09
2019-02-05T06:48:14.711Z,101549.59
2019-02-05T06:49:49.878Z,101547.81
2019-02-05T06:51:24.685Z,101548.66
2019-02-05T06:52:59.591Z,101538.13
2019-02-05T06:54:34.738Z,101542.50
2019-02-05T06:56:09.864Z,101541.85
2019-02-05T06:57:45.448Z,101551.28
2019-02-05T06:59:20.287Z,101552.08
2019-02-05T07:00:55.202Z,101553.01
2019-02-05T07:02:30.345Z,101551.55
2019-02-05T07:04:06.164Z,101552.03
2019-02-05T07:05:40.977Z,101549.94
2019-02-05T07:07:16.121Z,101546.52
2019-02-05T07:08:50.984Z,101541.41
2019-02-05T07:10:26.767Z,101545.23
2019-02-05T07:12:02.190Z,101535.94
2019-02-05T07:13:37.442Z,101536.29
2019-02-05T07:15:13.232Z,101541.73
2019-02-05T07:16:48.335Z,101530.75
2019-02-05T07:18:23.233Z,101538.77
2019-02-05T07:19:58.347Z,101533.91
2019-02-05T07:21:33.191Z,101539.01
2019-02-05T07:23:08.544Z,101538.31
2019-02-05T07:24:43.360Z,101535.06
2019-02-05T07:26:18.254Z,101532.87
2019-02-05T07:27:53.371Z,101531.83
2019-02-05T07:29:28.163Z,101531.28
2019-02-05T07:31:04.673Z,101530.76
2019-02-05T07:32:39.752Z,101531.40
2019-02-05T07:34:14.861Z,101536.00
2019-02-05T07:35:49.391Z,101540.08
2019-02-05T07:37:24.170Z,101537.21
2019-02-05T07:38:59.308Z,101535.42
2019-02-05T07:40:34.749Z,101532.25
2019-02-05T07:42:09.831Z,101531.86
2019-02-05T07:43:44.641Z,101528.87
2019-02-05T07:45:20.290Z,101528.03
2019-02-05T07:46:55.205Z,101528.17
2019-02-05T07:48:30.573Z,101533.39
2019-02-05T07:50:08.962Z,101531.60
2019-02-05T07:51:43.899Z,101536.69
2019-02-05T07:53:19.565Z,101533.77
2019-02-05T07:54:53.976Z,101538.29
2019-02-05T07:56:28.574Z,101527.52
2019-02-05T07:58:03.480Z,101523.30
2019-02-05T07:59:38.549Z,101519.44
2019-02-05T08:01:13.234Z,101527.63
2019-02-05T08:02:48.161Z,101528.94
2019-02-05T08:04:22.978Z,101529.14
2019-02-05T08:05:58.303Z,101528.05
2019-02-05T08:07:33.126Z,101526.74
2019-02-05T08:09:10.413Z,101518.77
2019-02-05T08:10:46.081Z,101505.21
2019-02-05T08:12:22.656Z,101513.80
2019-02-05T08:13:57.435Z,101519.05
2019-02-05T08:15:33.839Z,101515.06
2019-02-05T08:17:27.558Z,101515.77
2019-02-05T08:18:50.471Z,101523.09
2019-02-05T08:20:25.517Z,101522.92
2019-02-05T08:22:00.428Z,101521.63
2019-02-05T08:23:35.307Z,101523.78
2019-02-05T08:25:12.453Z,101522.34
2019-02-05T08:26:47.286Z,101519.86
2019-02-05T08:28:22.107Z,101513.66
2019-02-05T08:29:56.562Z,101524.16
2019-02-05T08:31:31.392Z,101525.81
2019-02-05T08:33:06.437Z,101534.17
2019-02-05T08:34:43.489Z,101532.34
2019-02-05T08:36:18.534Z,101527.94
2019-02-05T08:37:53.403Z,101523.55
2019-02-05T08:39:28.687Z,101537.92
2019-02-05T08:41:04.029Z,101542.17
2019-02-05T08:42:38.816Z,101543.53
2019-02-05T08:44:13.239Z,101543.20
2019-02-05T08:45:56.339Z,101548.52
2019-02-05T08:47:24.165Z,101541.06
2019-02-05T08:48:59.005Z,101540.38
2019-02-05T08:50:33.525Z,101539.42
2019-02-05T08:52:08.255Z,101542.30
2019-02-05T08:53:43.117Z,101537.33
2019-02-05T08:55:18.758Z,101538.01
2019-02-05T08:56:53.201Z,101535.18
2019-02-05T08:58:31.047Z,101532.11
2019-02-05T09:00:05.345Z,101527.55
2019-02-05T09:01:40.036Z,101528.84
2019-02-05T09:03:14.799Z,101521.06
2019-02-05T09:12:52.942Z,101539.47
2019-02-05T09:14:48.555Z,101542.72
2019-02-05T09:16:56.635Z,101542.16
2019-02-05T09:20:46.746Z,101545.84
2019-02-05T09:22:24.544Z,101534.87
2019-02-05T09:24:03.104Z,101535.45
2019-02-05T09:26:02.016Z,101540.04
2019-02-05T09:27:27.867Z,101534.29
2019-02-05T09:29:33.156Z,101541.74
2019-02-05T09:31:19.786Z,101540.02
2019-02-05T09:33:02.777Z,101533.89
2019-02-05T09:34:56.808Z,101539.39
2019-02-05T09:36:38.746Z,101543.42
2019-02-05T09:38:13.775Z,101542.48
2019-02-05T09:40:08.319Z,101535.25
2019-02-05T09:42:02.247Z,101533.83
2019-02-05T09:43:37.350Z,101537.00
2019-02-05T09:45:15.853Z,101532.72
2019-02-05T09:46:50.672Z,101540.08
2019-02-05T09:48:25.753Z,101542.06
2019-02-05T09:50:00.832Z,101539.06
2019-02-05T09:51:35.923Z,101542.89
2019-02-05T09:53:10.689Z,101544.97
2019-02-05T09:54:45.374Z,101543.78
2019-02-05T09:56:20.268Z,101546.17
2019-02-05T09:57:55.302Z,101541.45
2019-02-05T09:59:29.818Z,101548.61
2019-02-05T10:01:05.659Z,101552.37
2019-02-05T10:02:40.138Z,101552.73
2019-02-05T10:04:14.646Z,101551.14
2019-02-05T10:05:49.186Z,101554.23
2019-02-05T10:07:23.670Z,101552.25
2019-02-05T10:08:58.699Z,101551.51
2019-02-05T10:10:33.526Z,101553.75
2019-02-05T10:12:08.522Z,101551.76
2019-02-05T10:13:43.120Z,101555.73
2019-02-05T10:15:20.078Z,101558.27
2019-02-05T10:16:54.537Z,101551.94
2019-02-05T10:18:29.291Z,101546.25
2019-02-05T10:20:04.475Z,101550.45
2019-02-05T10:21:39.108Z,101548.17
2019-02-05T10:23:13.666Z,101553.91
2019-02-05T10:24:49.913Z,101551.47
2019-02-05T10:26:24.871Z,101552.94
2019-02-05T10:27:59.598Z,101548.55
2019-02-05T10:29:34.154Z,101556.81
2019-02-05T10:31:09.033Z,101547.72
2019-02-05T10:32:43.601Z,101558.49
2019-02-05T10:34:18.483Z,101551.87
2019-02-05T10:35:53.025Z,101555.63
2019-02-05T10:37:27.519Z,101557.50
2019-02-05T10:39:02.389Z,101558.00
2019-02-05T10:40:36.991Z,101558.20
2019-02-05T10:42:11.735Z,101554.34
2019-02-05T10:43:46.227Z,101552.48
2019-02-05T10:45:21.418Z,101545.67
2019-02-05T10:46:55.874Z,101540.94
2019-02-05T10:48:30.754Z,101551.07
2019-02-05T10:50:08.648Z,101547.97
2019-02-05T10:51:43.720Z,101548.56
2019-02-05T10:53:18.883Z,101547.78
2019-02-05T10:54:54.338Z,101548.97
2019-02-05T10:56:29.330Z,101548.66
2019-02-05T10:58:04.974Z,101546.98
2019-02-05T10:59:39.787Z,101543.53
2019-02-05T11:01:14.671Z,101542.22
2019-02-05T11:02:49.978Z,101536.86
2019-02-05T11:04:24.843Z,101541.48
2019-02-05T11:05:59.635Z,101542.88
2019-02-05T11:07:34.453Z,101538.11
2019-02-05T11:09:11.570Z,101547.08
2019-02-05T11:10:46.475Z,101546.05
2019-02-05T11:12:21.432Z,101540.05
2019-02-05T11:13:56.339Z,101541.80
2019-02-05T11:15:33.201Z,101543.33
2019-02-05T11:17:08.161Z,101540.52
2019-02-05T11:18:43.110Z,101542.99
2019-02-05T11:20:21.517Z,101546.03
2019-02-05T11:21:56.588Z,101540.84
2019-02-05T11:23:31.657Z,101538.67
2019-02-05T11:25:07.557Z,101545.17
2019-02-05T11:26:42.717Z,101546.58
2019-02-05T11:28:17.800Z,101541.55
2019-02-05T11:29:52.586Z,101543.33
2019-02-05T11:31:27.498Z,101541.05
2019-02-05T11:33:02.671Z,101543.22
2019-02-05T11:34:37.919Z,101544.33
2019-02-05T11:36:13.210Z,101542.41
2019-02-05T11:37:48.199Z,101550.27
2019-02-05T11:39:23.070Z,101553.08
2019-02-05T11:40:58.229Z,101550.67
2019-02-05T11:42:33.018Z,101553.12
2019-02-05T11:44:08.095Z,101554.45
2019-02-05T11:45:42.979Z,101549.11
2019-02-05T11:47:18.763Z,101554.38
2019-02-05T11:48:54.108Z,101555.58
2019-02-05T11:50:28.995Z,101553.86
2019-02-05T11:52:04.085Z,101553.00
2019-02-05T11:53:41.317Z,101556.23
2019-02-05T11:55:18.695Z,101555.31
2019-02-05T11:56:53.515Z,101553.55
2019-02-05T11:58:28.327Z,101557.27
2019-02-05T12:00:03.870Z,101552.34
2019-02-05T12:01:40.626Z,101552.20
2019-02-05T12:03:16.682Z,101552.09
2019-02-05T12:04:52.126Z,101556.72
2019-02-05T12:06:28.010Z,101555.90
2019-02-05T12:08:03.389Z,101561.59
2019-02-05T12:09:38.682Z,101557.02
2019-02-05T12:11:13.557Z,101560.22
2019-02-05T12:12:48.628Z,101561.05
2019-02-05T12:14:23.662Z,101550.68
2019-02-05T12:15:58.897Z,101554.94
2019-02-05T12:17:33.678Z,101552.14
2019-02-05T12:19:08.733Z,101555.72
2019-02-05T12:20:43.589Z,101554.71
2019-02-05T12:22:18.760Z,101549.23
2019-02-05T12:23:53.743Z,101552.64
2019-02-05T12:25:29.537Z,101553.55
2019-02-05T12:27:05.450Z,101547.38
2019-02-05T12:28:40.608Z,101548.11
2019-02-05T12:30:26.694Z,101553.95
2019-02-05T12:32:01.739Z,101544.11
2019-02-05T12:33:36.535Z,101536.00
2019-02-05T12:35:12.119Z,101535.92
2019-02-05T12:36:47.568Z,101538.95
2019-02-05T12:38:22.717Z,101535.73
2019-02-05T12:39:57.500Z,101537.97
2019-02-05T12:41:32.622Z,101531.86
2019-02-05T12:43:07.969Z,101532.21
2019-02-05T12:44:42.749Z,101533.24
2019-02-05T12:46:17.522Z,101528.50
2019-02-05T12:47:52.519Z,101528.53
2019-02-05T12:49:27.582Z,101526.53
2019-02-05T12:51:03.074Z,101531.72
2019-02-05T12:52:37.854Z,101528.91
2019-02-05T12:54:12.864Z,101526.83
2019-02-05T12:55:47.741Z,101525.77
2019-02-05T12:57:22.789Z,101521.00
2019-02-05T12:58:57.835Z,101523.45
2019-02-05T13:00:42.534Z,101522.44
2019-02-05T13:02:17.405Z,101521.98
2019-02-05T13:03:52.449Z,101518.34
2019-02-05T13:05:27.555Z,101518.23
2019-02-05T13:07:02.417Z,101520.42
2019-02-05T13:08:37.721Z,101527.80
2019-02-05T13:10:15.136Z,101525.19
2019-02-05T13:11:50.182Z,101520.28
2019-02-05T13:13:25.245Z,101523.26
2019-02-05T13:15:00.038Z,101523.70
2019-02-05T13:16:35.138Z,101519.01
2019-02-05T13:18:10.194Z,101522.23
2019-02-05T13:19:45.707Z,101508.22
2019-02-05T13:21:20.495Z,101507.17
2019-02-05T13:22:55.310Z,101518.61
2019-02-05T13:24:30.082Z,101509.22
2019-02-05T13:26:05.778Z,101509.55
2019-02-05T13:27:40.569Z,101515.25
2019-02-05T13:29:15.362Z,101525.50
2019-02-05T13:30:50.395Z,101517.41
2019-02-05T13:32:25.255Z,101513.74
2019-02-05T13:34:00.138Z,101516.24
2019-02-05T13:35:35.325Z,101511.41
2019-02-05T13:37:10.116Z,101519.11
2019-02-05T13:38:44.900Z,101515.68
2019-02-05T13:40:23.020Z,101517.44
2019-02-05T13:41:57.852Z,101522.52
2019-02-05T13:43:32.667Z,101517.28
2019-02-05T13:45:08.764Z,101522.80
2019-02-05T13:46:43.681Z,101521.11
2019-02-05T13:48:18.470Z,101518.82
2019-02-05T13:49:53.342Z,101524.15
2019-02-05T13:51:28.116Z,101523.86
2019-02-05T13:53:03.380Z,101519.25
2019-02-05T13:54:38.488Z,101514.02
2019-02-05T13:56:13.930Z,101509.05
2019-02-05T13:57:49.043Z,101523.67
2019-02-05T13:59:23.873Z,101515.92
2019-02-05T14:00:58.812Z,101522.17
2019-02-05T14:02:33.601Z,101520.31
2019-02-05T14:04:08.646Z,101529.38
2019-02-05T14:05:44.015Z,101525.05
2019-02-05T14:07:19.051Z,101526.64
2019-02-05T14:08:53.849Z,101523.93
2019-02-05T14:10:31.679Z,101526.46
2019-02-05T14:12:06.723Z,101526.38
2019-02-05T14:13:41.965Z,101529.92
2019-02-05T14:15:19.465Z,101524.14
2019-02-05T14:16:54.645Z,101527.17
2019-02-05T14:18:29.770Z,101531.17
2019-02-05T14:20:07.077Z,101525.61
2019-02-05T14:21:41.858Z,101522.95
2019-02-05T14:23:17.379Z,101528.72
2019-02-05T14:24:52.175Z,101521.45
2019-02-05T14:26:27.674Z,101533.72
2019-02-05T14:28:02.599Z,101531.20
2019-02-05T14:29:37.384Z,101528.48
2019-02-05T14:31:12.248Z,101533.67
2019-02-05T14:32:47.055Z,101535.95
2019-02-05T14:34:21.839Z,101532.70
2019-02-05T14:35:56.690Z,101536.09
2019-02-05T14:37:31.472Z,101537.45
2019-02-05T14:39:10.359Z,101542.45
2019-02-05T14:40:46.017Z,101535.16
2019-02-05T14:42:21.040Z,101541.42
2019-02-05T14:43:55.919Z,101536.10
2019-02-05T14:45:30.714Z,101539.69
2019-02-05T14:47:06.519Z,101542.83
2019-02-05T14:48:41.374Z,101541.34
2019-02-05T14:50:21.413Z,101546.66
2019-02-05T14:51:57.849Z,101545.81
2019-02-05T14:53:32.875Z,101537.20
2019-02-05T14:55:08.207Z,101544.82
2019-02-05T14:56:43.001Z,101544.18
2019-02-05T14:58:18.744Z,101539.41
2019-02-05T14:59:53.814Z,101539.98
2019-02-05T15:01:28.927Z,101540.39
2019-02-05T15:03:07.042Z,101548.42
2019-02-05T15:04:41.860Z,101547.99
2019-02-05T15:06:17.176Z,101546.19
2019-02-05T15:07:52.460Z,101549.08
2019-02-05T15:09:27.752Z,101543.44
2019-02-05T15:11:02.766Z,101543.47
2019-02-05T15:12:37.656Z,101548.81
2019-02-05T15:14:12.684Z,101545.47
2019-02-05T15:15:48.033Z,101544.28
2019-02-05T15:17:23.144Z,101542.13
2019-02-05T15:18:58.685Z,101545.41
2019-02-05T15:20:40.842Z,101545.91
2019-02-05T15:22:15.869Z,101546.50
2019-02-05T15:23:51.051Z,101551.27
2019-02-05T15:25:26.381Z,101550.50
2019-02-05T15:27:01.107Z,101554.23
2019-02-05T15:28:36.308Z,101556.56
2019-02-05T15:30:17.446Z,101551.00
2019-02-05T15:31:54.754Z,101550.95
2019-02-05T15:33:51.962Z,101553.59
2019-02-05T15:35:27.335Z,101553.27
2019-02-05T15:37:02.129Z,101557.66
2019-02-05T15:38:37.312Z,101555.45
2019-02-05T15:40:13.764Z,101557.69
2019-02-05T15:41:48.816Z,101556.95
2019-02-05T15:43:24.165Z,101562.29
2019-02-05T15:44:58.992Z,101561.36
2019-02-05T15:46:34.510Z,101559.28
2019-02-05T15:48:09.635Z,101557.28
2019-02-05T15:49:44.419Z,101564.61
2019-02-05T15:51:19.418Z,101566.31
2019-02-05T15:52:53.860Z,101563.56
2019-02-05T15:54:28.574Z,101559.10
2019-02-05T15:56:03.097Z,101568.30
2019-02-05T15:57:38.105Z,101563.45
2019-02-05T15:59:12.538Z,101576.52
2019-02-05T16:00:46.922Z,101573.85
2019-02-05T16:02:21.634Z,101572.50
2019-02-05T16:03:56.074Z,101579.75
2019-02-05T16:05:30.503Z,101585.63
2019-02-05T16:07:05.262Z,101577.05
2019-02-05T16:08:39.832Z,101585.98
2019-02-05T16:10:15.759Z,101589.64
2019-02-05T16:11:50.459Z,101593.64
2019-02-05T16:13:24.986Z,101589.55
2019-02-05T16:14:59.387Z,101594.12
2019-02-05T16:16:33.895Z,101593.89
2019-02-05T16:18:08.915Z,101593.69
2019-02-05T16:19:43.298Z,101599.05
2019-02-05T16:21:17.934Z,101597.61
2019-02-05T16:22:52.810Z,101600.82
2019-02-05T16:24:27.378Z,101599.27
2019-02-05T16:26:02.249Z,101598.43
2019-02-05T16:27:36.687Z,101601.81
2019-02-05T16:29:11.366Z,101598.53
2019-02-05T16:30:45.752Z,101595.30
2019-02-05T16:32:20.193Z,101602.02
2019-02-05T16:33:55.038Z,101598.38
2019-02-05T16:35:29.474Z,101599.49
2019-02-05T16:37:04.153Z,101602.78
2019-02-05T16:38:38.613Z,101603.23
2019-02-05T16:40:21.441Z,101601.50
2019-02-05T16:41:56.483Z,101603.30
2019-02-05T16:43:30.964Z,101606.86
2019-02-05T16:45:07.938Z,101608.30
2019-02-05T16:46:42.942Z,101610.50
2019-02-05T16:48:17.909Z,101613.82
2019-02-05T16:49:52.609Z,101620.24
2019-02-05T16:51:27.078Z,101623.78
2019-02-05T16:53:01.684Z,101623.19
2019-02-05T16:54:36.744Z,101624.20
2019-02-05T16:56:11.445Z,101618.60
2019-02-05T16:57:46.494Z,101624.49
2019-02-05T16:59:21.197Z,101624.23
2019-02-05T17:00:55.661Z,101627.05
2019-02-05T17:02:30.279Z,101630.67
2019-02-05T17:04:05.275Z,101632.27
2019-02-05T17:05:40.425Z,101624.83
2019-02-05T17:07:15.175Z,101635.69
2019-02-05T17:08:49.805Z,101638.28
2019-02-05T17:10:24.530Z,101634.48
2019-02-05T17:11:59.398Z,101635.88
2019-02-05T17:13:34.114Z,101638.26
2019-02-05T17:15:10.586Z,101645.37
2019-02-05T17:16:45.523Z,101645.86
2019-02-05T17:18:23.906Z,101640.37
2019-02-05T17:19:56.001Z,101647.26
2019-02-05T17:21:30.752Z,101649.45
2019-02-05T17:23:05.745Z,101657.66
2019-02-05T17:24:40.665Z,101649.48
2019-02-05T17:26:15.182Z,101647.95
2019-02-05T17:27:50.602Z,101652.33
2019-02-05T17:29:25.298Z,101654.84
2019-02-05T17:31:00.407Z,101656.56
2019-02-05T17:32:40.413Z,101656.85
2019-02-05T17:34:11.703Z,101649.78
2019-02-05T17:35:46.600Z,101648.85
2019-02-05T17:37:21.053Z,101653.08
2019-02-05T17:38:55.657Z,101651.49
2019-02-05T17:40:30.325Z,101652.22
2019-02-05T17:42:05.146Z,101653.39
2019-02-05T17:43:39.633Z,101648.41
2019-02-05T17:45:17.211Z,101653.95
2019-02-05T17:46:51.882Z,101652.83
2019-02-05T17:48:26.597Z,101653.20
2019-02-05T17:50:01.608Z,101653.77
2019-02-05T17:51:36.297Z,101651.53
2019-02-05T17:53:10.796Z,101659.33
2019-02-05T17:54:45.374Z,101658.45
2019-02-05T17:56:19.822Z,101657.34
2019-02-05T17:57:54.688Z,101659.17
2019-02-05T17:59:29.456Z,101652.73
2019-02-05T18:01:10.902Z,101655.49
2019-02-05T18:02:51.688Z,101657.96
2019-02-05T18:04:21.689Z,101658.55
2019-02-05T18:05:56.540Z,101664.20
2019-02-05T18:07:31.862Z,101663.03
2019-02-05T18:09:08.598Z,101665.36
2019-02-05T18:10:44.024Z,101666.68
2019-02-05T18:12:18.709Z,101666.18
2019-02-05T18:13:53.990Z,101667.77
2019-02-05T18:15:30.839Z,101675.52
2019-02-05T18:17:05.604Z,101668.73
2019-02-05T18:18:40.114Z,101666.89
2019-02-05T18:20:15.293Z,101668.02
2019-02-05T18:21:50.022Z,101672.23
2019-02-05T18:23:25.010Z,101675.06
2019-02-05T18:24:59.408Z,101669.69
2019-02-05T18:26:34.240Z,101682.02
2019-02-05T18:28:08.689Z,101684.42
2019-02-05T18:29:43.047Z,101689.15
2019-02-05T18:31:17.509Z,101690.73
2019-02-05T18:33:02.795Z,101686.85
2019-02-05T18:34:28.473Z,101685.16
2019-02-05T18:36:03.094Z,101683.98
2019-02-05T18:37:37.788Z,101686.27
2019-02-05T18:39:12.605Z,101684.05
2019-02-05T18:40:47.230Z,101689.25
2019-02-05T18:42:21.767Z,101689.84
2019-02-05T18:43:56.286Z,101688.27